createdAt,value
2022-11-14T00:04:53.047Z,7.06
2022-11-14T00:09:54.545Z,7.15
2022-11-14T00:14:56.043Z,7.15
2022-11-14T00:19:57.497Z,7.08
2022-11-14T00:24:59.062Z,6.97
2022-11-14T00:30:00.519Z,6.94
2022-11-14T00:35:01.991Z,6.86
2022-11-14T00:40:04.408Z,6.84
2022-11-14T00:45:06.427Z,6.87
2022-11-14T00:50:10.339Z,6.91
2022-11-14T00:55:11.795Z,6.89
2022-11-14T01:00:14.129Z,6.86
2022-11-14T01:05:15.785Z,6.80
2022-11-14T01:10:18.158Z,6.79
2022-11-14T01:15:19.677Z,6.80
2022-11-14T01:20:21.212Z,6.81
2022-11-14T01:25:22.771Z,6.88
2022-11-14T01:30:24.294Z,6.91
2022-11-14T01:35:25.750Z,6.84
2022-11-14T01:40:27.722Z,6.73
2022-11-14T01:45:54.268Z,6.61
2022-11-14T01:51:00.375Z,6.49
2022-11-14T01:56:06.234Z,6.53
2022-11-14T02:01:08.004Z,6.47
2022-11-14T02:06:13.938Z,6.42
2022-11-14T02:11:15.397Z,6.40
2022-11-14T02:16:16.835Z,6.27
2022-11-14T02:21:18.461Z,6.18
2022-11-14T02:26:21.762Z,6.14
2022-11-14T02:31:23.216Z,6.16
2022-11-14T02:36:25.027Z,6.24
2022-11-14T02:41:26.520Z,6.27
2022-11-14T02:46:28.010Z,6.22
2022-11-14T02:51:29.473Z,6.21
2022-11-14T02:56:30.947Z,6.23
2022-11-14T03:01:32.490Z,6.14
2022-11-14T03:06:34.381Z,6.02
2022-11-14T03:11:35.855Z,6.04
2022-11-14T03:16:37.379Z,5.87
2022-11-14T03:21:39.042Z,5.66
2022-11-14T03:26:40.962Z,5.53
2022-11-14T03:31:42.466Z,5.49
2022-11-14T03:36:44.119Z,5.43
2022-11-14T03:41:45.626Z,5.27
2022-11-14T03:46:47.608Z,5.20
2022-11-14T03:51:49.372Z,5.07
2022-11-14T03:56:50.922Z,4.99
2022-11-14T04:01:52.393Z,4.93
2022-11-14T04:06:53.957Z,4.96
2022-11-14T04:11:55.577Z,4.95
2022-11-14T04:17:00.178Z,4.92
2022-11-14T04:22:02.115Z,4.92
2022-11-14T04:27:03.739Z,4.97
2022-11-14T04:32:05.319Z,5.03
2022-11-14T04:37:06.841Z,5.09
2022-11-14T04:42:10.844Z,5.05
2022-11-14T04:47:12.350Z,4.66
2022-11-14T04:52:13.894Z,4.41
2022-11-14T04:57:17.867Z,4.27
2022-11-14T05:02:19.449Z,4.14
2022-11-14T05:07:20.969Z,4.08
2022-11-14T05:12:22.540Z,4.08
2022-11-14T05:17:24.026Z,4.22
2022-11-14T05:22:25.488Z,4.37
2022-11-14T05:27:27.048Z,4.60
2022-11-14T05:32:28.501Z,4.70
2022-11-14T05:37:30.107Z,4.80
2022-11-14T05:42:31.770Z,4.91
2022-11-14T05:47:33.233Z,5.10
2022-11-14T05:52:34.696Z,5.25
2022-11-14T05:57:36.473Z,5.13
2022-11-14T06:02:38.014Z,5.04
2022-11-14T06:07:39.810Z,4.86
2022-11-14T06:12:41.290Z,4.81
2022-11-14T06:17:44.169Z,4.77
2022-11-14T06:22:45.862Z,4.79
2022-11-14T06:27:47.390Z,4.87
2022-11-14T06:32:48.905Z,4.94
2022-11-14T06:37:50.400Z,4.98
2022-11-14T06:42:55.621Z,4.92
2022-11-14T06:48:00.242Z,4.90
2022-11-14T06:53:01.756Z,4.97
2022-11-14T06:58:03.344Z,5.10
2022-11-14T07:03:04.933Z,5.19
2022-11-14T07:08:06.518Z,5.34
2022-11-14T07:13:09.826Z,5.53
2022-11-14T07:18:11.346Z,6.01
2022-11-14T07:23:13.273Z,6.81
2022-11-14T07:28:15.141Z,6.87
2022-11-14T07:33:16.619Z,6.61
2022-11-14T07:38:18.197Z,6.34
2022-11-14T07:43:19.699Z,6.35
2022-11-14T07:48:22.492Z,6.36
2022-11-14T07:53:24.465Z,6.34
2022-11-14T07:58:26.045Z,6.33
2022-11-14T08:03:27.939Z,6.39
2022-11-14T08:08:29.726Z,6.51
2022-11-14T08:13:33.580Z,6.71
2022-11-14T08:18:35.454Z,6.81
2022-11-14T08:23:37.130Z,6.91
2022-11-14T08:28:39.114Z,6.90
2022-11-14T08:33:40.656Z,6.87
2022-11-14T08:38:42.179Z,6.88
2022-11-14T08:43:43.728Z,6.94
2022-11-14T08:48:45.278Z,7.06
2022-11-14T08:53:46.769Z,7.16
2022-11-14T08:58:48.321Z,7.10
2022-11-14T09:03:52.164Z,7.10
2022-11-14T09:08:56.126Z,6.92
2022-11-14T09:13:57.741Z,7.01
2022-11-14T09:18:59.714Z,7.22
2022-11-14T09:24:02.086Z,7.45
2022-11-14T09:29:05.655Z,7.56
2022-11-14T09:34:07.163Z,7.50
2022-11-14T09:39:08.935Z,7.54
2022-11-14T09:44:23.746Z,7.54
2022-11-14T09:49:40.420Z,7.61
2022-11-14T09:54:56.103Z,7.62
2022-11-14T09:59:57.757Z,7.83
2022-11-14T10:05:02.701Z,8.16
2022-11-14T10:10:38.843Z,8.30
2022-11-14T10:15:44.971Z,8.39
2022-11-14T10:20:55.543Z,8.40
2022-11-14T10:26:10.935Z,8.39
2022-11-14T10:31:21.017Z,8.53
2022-11-14T10:36:47.503Z,8.61
2022-11-14T10:41:59.750Z,8.74
2022-11-14T10:47:07.119Z,8.87
2022-11-14T10:52:16.744Z,8.92
2022-11-14T10:57:20.710Z,8.92
2022-11-14T11:02:23.199Z,8.90
2022-11-14T11:07:44.900Z,8.82
2022-11-14T11:12:49.215Z,8.61
2022-11-14T11:18:04.239Z,8.56
2022-11-14T11:23:12.196Z,8.52
2022-11-14T11:28:17.056Z,8.62
2022-11-14T11:33:21.327Z,8.73
2022-11-14T11:38:26.507Z,8.91
2022-11-14T11:43:39.263Z,9.11
2022-11-14T11:49:11.340Z,9.27
2022-11-14T11:54:20.731Z,9.28
2022-11-14T11:59:43.469Z,9.38
2022-11-14T12:04:45.816Z,9.51
2022-11-14T12:15:48.998Z,9.88
2022-11-14T12:21:14.802Z,10.33
2022-11-14T12:26:47.956Z,10.52
2022-11-14T12:32:02.503Z,10.94
2022-11-14T12:37:16.694Z,11.40
2022-11-14T12:42:21.257Z,11.54
2022-11-14T12:47:25.081Z,11.53
2022-11-14T12:52:46.189Z,11.63
2022-11-14T12:58:05.700Z,11.85
2022-11-14T13:03:25.830Z,12.03
2022-11-14T13:09:06.843Z,12.31
2022-11-14T13:14:27.915Z,12.43
2022-11-14T13:19:48.415Z,12.23
2022-11-14T13:24:57.621Z,11.96
2022-11-14T13:30:02.036Z,11.81
2022-11-14T13:35:05.563Z,11.67
2022-11-14T13:40:25.484Z,11.51
2022-11-14T13:45:42.001Z,11.27
2022-11-14T13:50:49.927Z,11.39
2022-11-14T13:56:07.224Z,11.59
2022-11-14T14:01:30.024Z,11.74
2022-11-14T14:06:38.703Z,11.71
2022-11-14T14:11:46.408Z,11.51
2022-11-14T14:16:57.775Z,11.32
2022-11-14T14:22:37.528Z,11.17
2022-11-14T14:28:23.131Z,11.16
2022-11-14T14:33:25.247Z,11.13
2022-11-14T14:38:28.437Z,11.13
2022-11-14T14:43:35.153Z,11.16
2022-11-14T14:48:42.175Z,11.10
2022-11-14T14:53:52.982Z,11.14
2022-11-14T14:58:55.134Z,11.18
2022-11-14T15:04:02.628Z,11.08
2022-11-14T15:09:21.993Z,10.80
2022-11-14T15:14:27.071Z,10.63
2022-11-14T15:19:40.900Z,10.41
2022-11-14T15:24:42.761Z,10.26
2022-11-14T15:29:58.893Z,10.13
2022-11-14T15:35:25.738Z,10.01
2022-11-14T15:40:27.596Z,9.86
2022-11-14T15:45:39.801Z,9.69
2022-11-14T15:50:41.895Z,9.58
2022-11-14T15:55:43.354Z,9.41
2022-11-14T16:00:48.212Z,9.25
2022-11-14T16:05:49.698Z,9.12
2022-11-14T16:10:51.166Z,9.01
2022-11-14T16:15:52.643Z,8.89
2022-11-14T16:20:58.838Z,8.75
2022-11-14T16:26:00.323Z,8.65
2022-11-14T16:31:01.953Z,8.62
2022-11-14T16:36:03.763Z,8.66
2022-11-14T16:41:07.791Z,8.74
2022-11-14T16:46:09.889Z,8.87
2022-11-14T16:51:40.941Z,8.98
2022-11-14T16:56:32.853Z,9.00
2022-11-14T17:01:34.558Z,8.89
2022-11-14T17:06:36.094Z,8.73
2022-11-14T17:11:37.594Z,8.60
2022-11-14T17:16:39.195Z,8.55
2022-11-14T17:21:41.078Z,8.56
2022-11-14T17:26:43.037Z,8.42
2022-11-14T17:31:46.973Z,8.26
2022-11-14T17:36:48.814Z,8.28
2022-11-14T17:41:50.292Z,8.45
2022-11-14T17:46:53.704Z,8.63
2022-11-14T17:51:55.318Z,8.67
2022-11-14T17:56:58.210Z,8.67
2022-11-14T18:02:00.397Z,8.64
2022-11-14T18:07:02.070Z,8.60
2022-11-14T18:12:03.678Z,8.56
2022-11-14T18:17:12.922Z,8.50
2022-11-14T18:22:15.014Z,8.40
2022-11-14T18:27:16.641Z,8.31
2022-11-14T18:32:18.574Z,8.30
2022-11-14T18:37:20.119Z,8.32
2022-11-14T18:42:21.622Z,8.36
2022-11-14T18:47:23.091Z,8.37
2022-11-14T18:52:24.743Z,8.34
2022-11-14T18:57:26.277Z,8.32
2022-11-14T19:02:27.860Z,8.27
2022-11-14T19:07:30.252Z,8.23
2022-11-14T19:12:31.750Z,8.20
2022-11-14T19:17:33.202Z,8.20
2022-11-14T19:22:34.863Z,8.18
2022-11-14T19:27:36.563Z,8.18
2022-11-14T19:32:38.107Z,8.25
2022-11-14T19:37:39.612Z,8.33
2022-11-14T19:42:41.176Z,8.41
2022-11-14T19:47:42.649Z,8.44
2022-11-14T19:52:44.129Z,8.43
2022-11-14T19:57:48.149Z,8.43
2022-11-14T20:02:49.589Z,8.46
2022-11-14T20:07:51.062Z,8.53
2022-11-14T20:12:52.562Z,8.62
2022-11-14T20:17:54.069Z,8.71
2022-11-14T20:22:55.540Z,8.75
2022-11-14T20:27:57.002Z,8.75
2022-11-14T20:32:58.497Z,8.73
2022-11-14T20:38:04.348Z,8.74
2022-11-14T20:43:07.238Z,8.75
2022-11-14T20:48:08.718Z,8.79
2022-11-14T20:53:10.180Z,8.89
2022-11-14T20:58:11.644Z,8.90
2022-11-14T21:03:13.109Z,8.93
2022-11-14T21:08:16.772Z,8.92
2022-11-14T21:13:41.268Z,8.90
2022-11-14T21:18:47.778Z,8.86
2022-11-14T21:23:50.488Z,8.86
2022-11-14T21:29:00.886Z,8.86
2022-11-14T21:34:10.530Z,8.88
2022-11-14T21:39:15.290Z,8.85
2022-11-14T21:44:17.967Z,8.79
2022-11-14T21:49:19.479Z,8.67
2022-11-14T21:54:21.018Z,8.54
2022-11-14T21:59:26.537Z,8.41
2022-11-14T22:04:28.481Z,8.25
2022-11-14T22:09:30.428Z,8.17
2022-11-14T22:14:31.956Z,8.22
2022-11-14T22:19:33.471Z,8.27
2022-11-14T22:24:35.044Z,8.29
2022-11-14T22:29:36.529Z,8.37
2022-11-14T22:34:38.045Z,8.41
2022-11-14T22:39:39.538Z,8.49
2022-11-14T22:44:41.007Z,8.56
2022-11-14T22:49:42.563Z,8.68
2022-11-14T22:54:44.104Z,8.80
2022-11-14T22:59:45.627Z,8.90
2022-11-14T23:04:47.100Z,8.91
2022-11-14T23:09:48.546Z,8.87
2022-11-14T23:14:50.004Z,8.85
2022-11-14T23:19:51.461Z,8.81
2022-11-14T23:24:52.914Z,8.85
2022-11-14T23:29:54.385Z,8.89
2022-11-14T23:34:55.958Z,8.91
2022-11-14T23:39:57.765Z,8.93
2022-11-14T23:44:59.221Z,8.93
2022-11-14T23:50:00.768Z,8.95
2022-11-14T23:55:02.761Z,8.96
